Time;durP1;ratioP1;P1;durP2;ratioP2;P2;SDS_P1;SDS_P2;PMS_P1;PMS_P2;Temp;Humidity;BMP_temperature;BMP_pressure;BME280_temperature;BME280_humidity;BME280_pressure;Samples;Min_cycle;Max_cycle;Signal;HPM_P1;HPM_P2
2022/06/02 00:00:05;;;;;;;0.60;0.60;;;;;;;;;;4937815;29;20289;-57
2022/06/02 00:03:11;;;;;;;1.10;0.50;;;;;;;;;;4945806;28;20291;-57
2022/06/02 00:06:12;;;;;;;0.50;0.50;;;;;;;;;;4946977;28;20223;-57
2022/06/02 00:09:10;;;;;;;0.50;0.50;;;;;;;;;;4943724;28;20204;-57
2022/06/02 00:12:05;;;;;;;0.60;0.60;;;;;;;;;;4940864;28;20245;-57
2022/06/02 00:15:00;;;;;;;0.50;0.50;;;;;;;;;;4945477;28;20226;-57
2022/06/02 00:17:55;;;;;;;0.50;0.50;;;;;;;;;;4942537;28;20299;-57
2022/06/02 00:20:49;;;;;;;0.73;0.73;;;;;;;;;;4946449;29;20226;-57
2022/06/02 00:23:47;;;;;;;0.70;0.70;;;;;;;;;;4940565;28;20209;-57
2022/06/02 00:26:45;;;;;;;0.60;0.60;;;;;;;;;;4939893;29;20319;-57
2022/06/02 00:29:49;;;;;;;0.40;0.40;;;;;;;;;;4941369;29;20699;-58
2022/06/02 00:32:44;;;;;;;0.60;0.60;;;;;;;;;;4951473;28;20229;-58
2022/06/02 00:35:42;;;;;;;0.60;0.60;;;;;;;;;;4940840;29;20215;-57
2022/06/02 00:38:31;;;;;;;0.63;0.63;;;;;;;;;;4941565;28;20275;-57
2022/06/02 00:41:24;;;;;;;0.80;0.80;;;;;;;;;;4939171;29;20227;-57
2022/06/02 00:44:28;;;;;;;0.70;0.70;;;;;;;;;;4940252;28;20214;-59
2022/06/02 00:47:49;;;;;;;0.70;0.70;;;;;;;;;;4945188;29;20215;-58
2022/06/02 00:50:49;;;;;;;0.60;0.60;;;;;;;;;;4923603;28;20220;-56
2022/06/02 00:57:30;;;;;;;0.90;0.90;;;;;;;;;;4946452;29;20216;-58
2022/06/02 01:00:14;;;;;;;0.50;0.50;;;;;;;;;;4943277;28;20294;-57
2022/06/02 01:03:08;;;;;;;0.93;0.93;;;;;;;;;;4946123;28;20214;-57
2022/06/02 01:06:23;;;;;;;0.40;0.40;;;;;;;;;;4942600;29;20218;-57
2022/06/02 01:09:25;;;;;;;0.70;0.70;;;;;;;;;;4945239;29;20209;-57
2022/06/02 01:12:26;;;;;;;0.63;0.63;;;;;;;;;;4937844;29;20246;-57
2022/06/02 01:15:22;;;;;;;0.53;0.53;;;;;;;;;;4947563;28;20228;-57
2022/06/02 01:18:17;;;;;;;0.80;0.70;;;;;;;;;;4941142;28;20311;-58
2022/06/02 01:21:58;;;;;;;0.67;0.67;;;;;;;;;;4945576;28;20225;-57
2022/06/02 01:25:15;;;;;;;0.47;0.47;;;;;;;;;;4901410;29;20295;-57
2022/06/02 01:28:22;;;;;;;0.53;0.53;;;;;;;;;;4891970;29;20217;-57
2022/06/02 01:31:18;;;;;;;0.60;0.60;;;;;;;;;;4941678;28;20572;-57
2022/06/02 01:34:17;;;;;;;0.60;0.60;;;;;;;;;;4943915;28;20218;-57
2022/06/02 01:37:11;;;;;;;0.80;0.80;;;;;;;;;;4941454;28;20220;-57
2022/06/02 01:40:12;;;;;;;0.70;0.70;;;;;;;;;;4941531;28;20211;-57
2022/06/02 01:43:07;;;;;;;0.70;0.70;;;;;;;;;;4941507;28;20218;-57
2022/06/02 01:46:14;;;;;;;0.70;0.70;;;;;;;;;;4943801;28;20581;-57
2022/06/02 01:49:13;;;;;;;0.57;0.57;;;;;;;;;;4944318;28;20298;-59
2022/06/02 01:52:16;;;;;;;0.50;0.50;;;;;;;;;;4942770;29;20559;-57
2022/06/02 01:55:25;;;;;;;0.93;0.80;;;;;;;;;;4946198;28;20223;-57
2022/06/02 01:58:27;;;;;;;1.00;0.93;;;;;;;;;;4950756;29;20468;-57
2022/06/02 02:01:20;;;;;;;0.80;0.80;;;;;;;;;;4949168;28;20234;-59
2022/06/02 02:04:21;;;;;;;0.73;0.73;;;;;;;;;;4948195;28;20215;-57
2022/06/02 02:07:19;;;;;;;0.80;0.80;;;;;;;;;;4948635;28;20221;-57
2022/06/02 02:10:16;;;;;;;0.87;0.87;;;;;;;;;;4941803;28;20218;-57
2022/06/02 02:13:16;;;;;;;1.30;0.80;;;;;;;;;;4942429;29;20604;-57
2022/06/02 02:16:19;;;;;;;0.80;0.80;;;;;;;;;;4954334;28;20226;-57
2022/06/02 02:19:19;;;;;;;0.90;0.90;;;;;;;;;;4948397;28;20234;-57
2022/06/02 02:22:16;;;;;;;0.70;0.70;;;;;;;;;;4944908;29;20215;-57
2022/06/02 02:25:13;;;;;;;1.27;0.87;;;;;;;;;;4942417;28;20221;-57
2022/06/02 02:28:08;;;;;;;0.70;0.70;;;;;;;;;;4946508;29;20218;-57
2022/06/02 02:31:07;;;;;;;0.73;0.73;;;;;;;;;;4942834;28;20231;-58
2022/06/02 02:34:04;;;;;;;0.57;0.57;;;;;;;;;;4948769;28;20685;-57
2022/06/02 02:37:00;;;;;;;0.77;0.77;;;;;;;;;;4942016;28;20225;-58
2022/06/02 02:39:55;;;;;;;0.60;0.60;;;;;;;;;;4947440;29;20226;-57
2022/06/02 02:42:48;;;;;;;1.10;1.10;;;;;;;;;;4940091;29;20208;-57
2022/06/02 02:45:46;;;;;;;0.60;0.60;;;;;;;;;;4948360;28;20214;-57
2022/06/02 02:48:51;;;;;;;0.73;0.73;;;;;;;;;;4940184;29;20212;-57
2022/06/02 02:51:48;;;;;;;0.80;0.80;;;;;;;;;;4945654;28;20204;-57
2022/06/02 02:54:43;;;;;;;0.80;0.80;;;;;;;;;;4947275;29;20232;-58
2022/06/02 02:57:41;;;;;;;0.67;0.67;;;;;;;;;;4942939;28;20241;-57
2022/06/02 03:00:33;;;;;;;0.63;0.63;;;;;;;;;;4945173;29;20238;-57
2022/06/02 03:03:24;;;;;;;0.90;0.90;;;;;;;;;;4946836;28;20282;-57
2022/06/02 03:06:20;;;;;;;0.70;0.70;;;;;;;;;;4941953;28;20207;-57
2022/06/02 03:09:13;;;;;;;0.70;0.70;;;;;;;;;;4943097;28;20752;-57
2022/06/02 03:12:09;;;;;;;0.70;0.70;;;;;;;;;;4942558;28;20228;-57
2022/06/02 03:15:09;;;;;;;0.63;0.63;;;;;;;;;;4949952;29;20214;-57
2022/06/02 03:18:28;;;;;;;0.77;0.77;;;;;;;;;;4942898;28;20680;-57
2022/06/02 03:21:25;;;;;;;0.57;0.57;;;;;;;;;;4941989;28;20283;-57
2022/06/02 03:24:41;;;;;;;0.80;0.80;;;;;;;;;;4949421;28;20230;-57
2022/06/02 03:27:40;;;;;;;0.90;0.90;;;;;;;;;;4950162;29;20204;-57
2022/06/02 03:30:37;;;;;;;0.70;0.70;;;;;;;;;;4945411;29;20208;-58
2022/06/02 03:33:39;;;;;;;0.80;0.80;;;;;;;;;;4946464;28;20603;-57
2022/06/02 03:36:42;;;;;;;0.70;0.70;;;;;;;;;;4941696;29;20216;-57
2022/06/02 03:39:44;;;;;;;0.67;0.67;;;;;;;;;;4946727;28;20220;-57
2022/06/02 03:42:41;;;;;;;0.70;0.70;;;;;;;;;;4940530;28;20199;-57
2022/06/02 03:45:44;;;;;;;0.60;0.60;;;;;;;;;;4945313;28;20209;-57
2022/06/02 03:48:54;;;;;;;0.63;0.63;;;;;;;;;;4948896;28;20727;-57
2022/06/02 03:51:47;;;;;;;0.60;0.60;;;;;;;;;;4947322;28;20867;-57
2022/06/02 03:54:49;;;;;;;0.73;0.73;;;;;;;;;;4942309;28;20211;-58
2022/06/02 03:58:08;;;;;;;0.60;0.60;;;;;;;;;;4944175;28;20244;-57
2022/06/02 04:00:57;;;;;;;0.67;0.67;;;;;;;;;;4945509;28;20230;-59
2022/06/02 04:04:01;;;;;;;1.00;1.00;;;;;;;;;;4945596;28;20235;-57
2022/06/02 04:07:03;;;;;;;0.80;0.80;;;;;;;;;;4941075;29;20220;-57
2022/06/02 04:10:09;;;;;;;0.60;0.60;;;;;;;;;;4942988;29;20213;-58
2022/06/02 04:16:35;;;;;;;0.90;0.90;;;;;;;;;;4936935;28;20208;-57
2022/06/02 04:22:56;;;;;;;0.70;0.70;;;;;;;;;;4941799;29;20297;-57
2022/06/02 04:25:49;;;;;;;0.83;0.67;;;;;;;;;;4943293;28;20219;-57
2022/06/02 04:28:55;;;;;;;0.73;0.73;;;;;;;;;;4941816;29;20210;-57
2022/06/02 04:31:53;;;;;;;0.60;0.60;;;;;;;;;;4944200;29;20212;-57
2022/06/02 04:34:51;;;;;;;0.53;0.53;;;;;;;;;;4942590;29;20216;-57
2022/06/02 04:37:44;;;;;;;0.50;0.50;;;;;;;;;;4939321;29;20290;-57
2022/06/02 04:40:42;;;;;;;0.70;0.70;;;;;;;;;;4946759;28;20215;-57
2022/06/02 04:43:38;;;;;;;1.00;1.00;;;;;;;;;;4942126;28;20242;-57
2022/06/02 04:46:36;;;;;;;0.90;0.90;;;;;;;;;;4940694;29;20705;-58
2022/06/02 04:49:32;;;;;;;0.93;0.93;;;;;;;;;;4942301;28;20232;-58
2022/06/02 04:52:26;;;;;;;0.80;0.80;;;;;;;;;;4938470;29;20861;-57
2022/06/02 04:55:21;;;;;;;0.80;0.80;;;;;;;;;;4942034;29;20684;-57
2022/06/02 04:58:16;;;;;;;0.70;0.70;;;;;;;;;;4944498;28;20241;-57
2022/06/02 05:01:09;;;;;;;0.93;0.93;;;;;;;;;;4939518;29;20233;-57
2022/06/02 05:04:11;;;;;;;0.93;0.87;;;;;;;;;;4939808;28;20245;-58
2022/06/02 05:07:10;;;;;;;0.80;0.80;;;;;;;;;;4938938;28;20224;-57
2022/06/02 05:10:12;;;;;;;0.90;0.90;;;;;;;;;;4942064;28;20218;-58
2022/06/02 05:13:07;;;;;;;0.80;0.80;;;;;;;;;;4945716;29;20205;-57
2022/06/02 05:16:13;;;;;;;1.00;0.90;;;;;;;;;;4937974;29;20223;-58
2022/06/02 05:19:33;;;;;;;1.00;1.00;;;;;;;;;;4941298;28;20232;-58
2022/06/02 05:22:51;;;;;;;1.50;0.90;;;;;;;;;;4945393;28;20225;-57
2022/06/02 05:26:11;;;;;;;0.80;0.80;;;;;;;;;;4940547;29;20286;-57
2022/06/02 05:29:20;;;;;;;0.80;0.80;;;;;;;;;;4945833;28;20213;-57
2022/06/02 05:32:37;;;;;;;0.90;0.90;;;;;;;;;;4940145;28;20303;-57
2022/06/02 05:36:00;;;;;;;0.70;0.70;;;;;;;;;;4940200;29;20229;-57
2022/06/02 05:39:03;;;;;;;0.77;0.77;;;;;;;;;;4935984;29;20631;-57
2022/06/02 05:42:05;;;;;;;0.90;0.90;;;;;;;;;;4940001;29;20584;-57
2022/06/02 05:45:11;;;;;;;0.90;0.77;;;;;;;;;;4942860;28;20213;-57
2022/06/02 05:48:18;;;;;;;0.60;0.60;;;;;;;;;;4942091;28;20209;-58
2022/06/02 05:51:15;;;;;;;0.80;0.80;;;;;;;;;;4945738;28;20599;-58
2022/06/02 05:54:14;;;;;;;0.70;0.70;;;;;;;;;;4937111;28;20216;-58
2022/06/02 05:57:14;;;;;;;0.80;0.80;;;;;;;;;;4941857;29;20296;-58
2022/06/02 06:00:15;;;;;;;0.83;0.83;;;;;;;;;;4938497;29;20311;-58
2022/06/02 06:03:36;;;;;;;0.90;0.90;;;;;;;;;;4945745;28;20221;-57
2022/06/02 06:06:32;;;;;;;1.20;0.97;;;;;;;;;;4936867;28;20217;-59
2022/06/02 06:09:29;;;;;;;0.83;0.83;;;;;;;;;;4943363;28;20205;-57
2022/06/02 06:12:39;;;;;;;0.80;0.80;;;;;;;;;;4941013;29;20647;-57
2022/06/02 06:15:37;;;;;;;0.90;0.90;;;;;;;;;;4945041;28;20209;-58
2022/06/02 06:18:40;;;;;;;0.80;0.80;;;;;;;;;;4946236;28;20231;-57
2022/06/02 06:21:43;;;;;;;0.77;0.77;;;;;;;;;;4939447;29;20210;-57
2022/06/02 06:24:52;;;;;;;0.60;0.60;;;;;;;;;;4941504;28;20562;-56
2022/06/02 06:27:56;;;;;;;0.63;0.63;;;;;;;;;;4945119;28;20209;-57
2022/06/02 06:30:57;;;;;;;0.93;0.93;;;;;;;;;;4943128;28;20216;-70
2022/06/02 06:33:53;;;;;;;0.77;0.77;;;;;;;;;;4948378;28;20685;-57
2022/06/02 06:37:05;;;;;;;0.70;0.70;;;;;;;;;;4940096;28;20215;-56
2022/06/02 06:40:03;;;;;;;0.77;0.77;;;;;;;;;;4949360;28;20231;-57
2022/06/02 06:43:01;;;;;;;0.60;0.60;;;;;;;;;;4947550;29;20216;-57
2022/06/02 06:45:55;;;;;;;0.70;0.70;;;;;;;;;;4940887;29;20212;-57
2022/06/02 06:48:47;;;;;;;0.57;0.57;;;;;;;;;;4944496;28;20710;-57
2022/06/02 06:51:41;;;;;;;0.90;0.90;;;;;;;;;;4936788;29;20204;-58
2022/06/02 06:54:41;;;;;;;0.80;0.80;;;;;;;;;;4947218;28;20211;-58
2022/06/02 06:57:35;;;;;;;1.00;1.00;;;;;;;;;;4939632;29;20674;-57
2022/06/02 07:00:25;;;;;;;0.60;0.60;;;;;;;;;;4947191;28;20225;-57
2022/06/02 07:03:21;;;;;;;0.73;0.73;;;;;;;;;;4947270;28;20302;-56
2022/06/02 07:06:15;;;;;;;0.93;0.80;;;;;;;;;;4950496;28;20241;-58
2022/06/02 07:09:12;;;;;;;0.73;0.73;;;;;;;;;;4949855;28;20261;-57
2022/06/02 07:15:25;;;;;;;1.03;1.00;;;;;;;;;;4943710;28;20343;-56
2022/06/02 07:18:24;;;;;;;0.70;0.70;;;;;;;;;;4942087;28;20203;-57
2022/06/02 07:21:26;;;;;;;0.60;0.60;;;;;;;;;;4944232;29;20648;-57
2022/06/02 07:24:23;;;;;;;1.27;0.80;;;;;;;;;;4941544;28;20226;-57
2022/06/02 07:27:20;;;;;;;0.60;0.60;;;;;;;;;;4945455;29;20206;-57
2022/06/02 07:30:24;;;;;;;0.70;0.70;;;;;;;;;;4950741;28;20209;-57
2022/06/02 07:33:27;;;;;;;0.83;0.83;;;;;;;;;;4948965;28;20207;-57
2022/06/02 07:36:36;;;;;;;0.83;0.83;;;;;;;;;;4946584;29;20266;-57
2022/06/02 07:40:13;;;;;;;0.53;0.53;;;;;;;;;;4934844;29;20236;-57
2022/06/02 07:43:37;;;;;;;0.57;0.57;;;;;;;;;;4941303;29;20237;-57
2022/06/02 07:46:40;;;;;;;0.70;0.70;;;;;;;;;;4943819;29;20219;-58
2022/06/02 07:49:40;;;;;;;0.70;0.70;;;;;;;;;;4941411;28;20259;-58
2022/06/02 07:52:35;;;;;;;1.00;0.70;;;;;;;;;;4942459;29;20263;-57
2022/06/02 07:55:31;;;;;;;1.33;0.80;;;;;;;;;;4949153;28;20210;-57
2022/06/02 07:58:40;;;;;;;0.70;0.60;;;;;;;;;;4945907;28;20298;-58
2022/06/02 08:01:52;;;;;;;0.60;0.60;;;;;;;;;;4939763;29;20575;-57
2022/06/02 08:04:49;;;;;;;0.80;0.80;;;;;;;;;;4945965;28;20203;-57
2022/06/02 08:07:47;;;;;;;0.63;0.63;;;;;;;;;;4948293;28;20228;-57
2022/06/02 08:10:46;;;;;;;0.70;0.70;;;;;;;;;;4942062;29;20242;-57
2022/06/02 08:13:44;;;;;;;0.63;0.63;;;;;;;;;;4944013;29;20207;-58
2022/06/02 08:16:45;;;;;;;1.37;0.70;;;;;;;;;;4948407;29;20218;-57
2022/06/02 08:19:43;;;;;;;0.60;0.60;;;;;;;;;;4942654;28;20225;-62
2022/06/02 08:22:36;;;;;;;0.80;0.80;;;;;;;;;;4948762;29;20214;-57
2022/06/02 08:25:30;;;;;;;0.50;0.50;;;;;;;;;;4944259;29;20229;-57
2022/06/02 08:28:52;;;;;;;0.70;0.70;;;;;;;;;;4947560;28;20579;-58
2022/06/02 08:31:55;;;;;;;0.90;0.70;;;;;;;;;;4947786;29;20202;-58
2022/06/02 08:34:54;;;;;;;0.60;0.60;;;;;;;;;;4941516;29;20222;-57
2022/06/02 08:37:54;;;;;;;0.60;0.60;;;;;;;;;;4938150;29;20676;-58
2022/06/02 08:41:28;;;;;;;0.50;0.50;;;;;;;;;;4945264;29;20230;-57
2022/06/02 08:44:58;;;;;;;0.47;0.47;;;;;;;;;;4939029;28;20347;-57
2022/06/02 08:48:19;;;;;;;1.33;0.60;;;;;;;;;;4947086;28;20214;-76
2022/06/02 08:51:50;;;;;;;0.60;0.60;;;;;;;;;;4944438;28;20204;-58
2022/06/02 08:55:23;;;;;;;0.60;0.60;;;;;;;;;;4947897;28;20204;-57
2022/06/02 08:58:59;;;;;;;0.60;0.60;;;;;;;;;;4941330;29;20211;-56
2022/06/02 09:02:00;;;;;;;0.60;0.60;;;;;;;;;;4944049;28;20238;-56
2022/06/02 09:05:33;;;;;;;0.60;0.60;;;;;;;;;;4941804;28;20216;-56
2022/06/02 09:09:11;;;;;;;0.60;0.60;;;;;;;;;;4939855;28;20213;-77
2022/06/02 09:12:18;;;;;;;0.87;0.60;;;;;;;;;;4939474;29;20233;-59
2022/06/02 09:15:35;;;;;;;0.43;0.43;;;;;;;;;;4945501;28;20334;-57
2022/06/02 09:19:06;;;;;;;0.50;0.50;;;;;;;;;;4946681;29;20275;-57
2022/06/02 09:22:25;;;;;;;0.50;0.50;;;;;;;;;;4928468;28;20227;-56
2022/06/02 09:25:22;;;;;;;0.60;0.60;;;;;;;;;;4930942;28;20506;-57
2022/06/02 09:28:33;;;;;;;0.70;0.70;;;;;;;;;;4941385;28;20207;-56
2022/06/02 09:31:42;;;;;;;0.77;0.67;;;;;;;;;;4946693;29;20239;-56
2022/06/02 09:34:42;;;;;;;0.60;0.60;;;;;;;;;;4942925;28;20217;-57
2022/06/02 09:38:14;;;;;;;0.50;0.50;;;;;;;;;;4937509;29;20299;-58
2022/06/02 09:41:19;;;;;;;0.47;0.47;;;;;;;;;;4919879;28;20610;-57
2022/06/02 09:44:17;;;;;;;0.70;0.70;;;;;;;;;;4941669;28;20215;-56
2022/06/02 09:47:21;;;;;;;0.70;0.70;;;;;;;;;;4942174;28;20212;-56
2022/06/02 09:50:37;;;;;;;0.60;0.60;;;;;;;;;;4937325;29;20217;-56
2022/06/02 09:53:57;;;;;;;0.70;0.70;;;;;;;;;;4945964;28;20204;-56
2022/06/02 10:00:59;;;;;;;0.80;0.80;;;;;;;;;;4940487;28;20236;-57
2022/06/02 10:04:01;;;;;;;0.60;0.60;;;;;;;;;;4947003;28;20671;-56
2022/06/02 10:07:05;;;;;;;0.50;0.50;;;;;;;;;;4946680;28;20208;-57
2022/06/02 10:10:14;;;;;;;0.53;0.53;;;;;;;;;;4937033;28;20208;-57
2022/06/02 10:13:34;;;;;;;0.50;0.50;;;;;;;;;;4949184;28;20688;-57
2022/06/02 10:17:18;;;;;;;0.80;0.80;;;;;;;;;;4940886;29;20223;-57
2022/06/02 10:20:44;;;;;;;0.50;0.50;;;;;;;;;;4941175;28;20234;-58
2022/06/02 10:24:11;;;;;;;0.77;0.73;;;;;;;;;;4945795;29;20207;-58
2022/06/02 10:27:12;;;;;;;0.60;0.60;;;;;;;;;;4934781;29;20670;-57
2022/06/02 10:30:23;;;;;;;0.60;0.60;;;;;;;;;;4943236;29;20658;-57
2022/06/02 10:33:44;;;;;;;1.67;0.90;;;;;;;;;;4944449;29;20225;-69
2022/06/02 10:37:08;;;;;;;0.93;0.93;;;;;;;;;;4945044;28;20213;-58
2022/06/02 10:40:11;;;;;;;2.50;0.60;;;;;;;;;;4943988;28;20233;-57
2022/06/02 10:43:19;;;;;;;0.80;0.80;;;;;;;;;;4945369;28;20204;-57
2022/06/02 10:46:42;;;;;;;0.60;0.60;;;;;;;;;;4945495;29;20571;-57
2022/06/02 10:49:38;;;;;;;0.80;0.80;;;;;;;;;;4934913;28;20212;-58
2022/06/02 10:53:10;;;;;;;0.80;0.80;;;;;;;;;;4944204;29;20216;-57
2022/06/02 10:56:22;;;;;;;0.90;0.90;;;;;;;;;;4890948;29;20218;-63
2022/06/02 10:59:36;;;;;;;0.90;0.90;;;;;;;;;;4949459;28;20208;-57
2022/06/02 11:02:56;;;;;;;0.90;0.90;;;;;;;;;;4950648;28;20684;-57
2022/06/02 11:06:18;;;;;;;1.00;1.00;;;;;;;;;;4933885;28;20894;-57
2022/06/02 11:09:46;;;;;;;1.47;1.10;;;;;;;;;;4946132;28;20222;-57
2022/06/02 11:13:06;;;;;;;1.30;1.20;;;;;;;;;;4943907;29;20255;-58
2022/06/02 11:16:34;;;;;;;0.90;0.90;;;;;;;;;;4945406;29;20864;-57
2022/06/02 11:19:58;;;;;;;1.27;1.17;;;;;;;;;;4942851;28;20220;-57
2022/06/02 11:23:27;;;;;;;0.93;0.90;;;;;;;;;;4942239;28;20212;-57
2022/06/02 11:26:51;;;;;;;1.10;1.10;;;;;;;;;;4926128;29;20225;-57
2022/06/02 11:30:08;;;;;;;1.10;1.10;;;;;;;;;;4949538;28;20208;-57
2022/06/02 11:33:13;;;;;;;1.57;1.47;;;;;;;;;;4946538;28;20559;-57
2022/06/02 11:36:37;;;;;;;1.50;1.40;;;;;;;;;;4943574;28;20549;-57
2022/06/02 11:40:00;;;;;;;1.27;1.27;;;;;;;;;;4941954;29;20242;-57
2022/06/02 11:43:13;;;;;;;1.27;1.27;;;;;;;;;;4942840;29;20212;-58
2022/06/02 11:46:34;;;;;;;1.37;1.37;;;;;;;;;;4945154;28;20210;-57
2022/06/02 11:49:54;;;;;;;1.30;1.30;;;;;;;;;;4944028;29;20953;-57
2022/06/02 11:53:05;;;;;;;1.43;1.33;;;;;;;;;;4942454;28;20216;-57
2022/06/02 11:55:58;;;;;;;1.30;1.30;;;;;;;;;;4941300;29;20201;-57
2022/06/02 11:59:10;;;;;;;1.40;1.40;;;;;;;;;;4940525;28;20213;-58
2022/06/02 12:02:21;;;;;;;1.30;1.30;;;;;;;;;;4945505;28;20227;-58
2022/06/02 12:05:32;;;;;;;1.60;1.60;;;;;;;;;;4947930;28;20569;-57
2022/06/02 12:08:48;;;;;;;1.67;1.57;;;;;;;;;;4945479;28;20219;-57
2022/06/02 12:11:55;;;;;;;1.67;1.57;;;;;;;;;;4944152;28;20244;-57
2022/06/02 12:15:07;;;;;;;1.90;1.80;;;;;;;;;;4940200;29;20216;-57
2022/06/02 12:18:06;;;;;;;1.90;1.80;;;;;;;;;;4941931;29;20271;-57
2022/06/02 12:21:27;;;;;;;2.00;1.90;;;;;;;;;;4939096;28;20235;-57
2022/06/02 12:24:40;;;;;;;2.00;1.90;;;;;;;;;;4944502;28;20707;-57
2022/06/02 12:27:48;;;;;;;1.87;1.70;;;;;;;;;;4945932;29;20204;-57
2022/06/02 12:30:50;;;;;;;2.07;1.97;;;;;;;;;;4940224;28;20569;-58
2022/06/02 12:33:57;;;;;;;2.10;1.90;;;;;;;;;;4945957;28;20211;-58
2022/06/02 12:36:59;;;;;;;2.37;2.27;;;;;;;;;;4942417;28;20216;-57
2022/06/02 12:40:03;;;;;;;2.53;2.33;;;;;;;;;;4944029;29;20216;-57
2022/06/02 12:43:25;;;;;;;2.20;2.10;;;;;;;;;;4939108;28;20221;-58
2022/06/02 12:46:38;;;;;;;2.20;2.10;;;;;;;;;;4937680;28;20248;-57
2022/06/02 12:50:10;;;;;;;2.33;2.13;;;;;;;;;;4939649;29;20204;-77
2022/06/02 12:53:24;;;;;;;2.20;2.10;;;;;;;;;;4935197;28;20893;-57
2022/06/02 12:56:27;;;;;;;2.20;2.10;;;;;;;;;;4942669;28;20594;-57
2022/06/02 12:59:43;;;;;;;2.40;2.30;;;;;;;;;;4941638;29;20286;-57
2022/06/02 13:02:53;;;;;;;2.40;2.30;;;;;;;;;;4945117;28;20203;-57
2022/06/02 13:06:11;;;;;;;2.30;2.20;;;;;;;;;;4935965;29;20204;-57
2022/06/02 13:09:30;;;;;;;2.50;2.40;;;;;;;;;;4944235;29;20244;-63
2022/06/02 13:12:47;;;;;;;2.70;2.57;;;;;;;;;;4936525;29;20286;-57
2022/06/02 13:16:06;;;;;;;2.80;2.60;;;;;;;;;;4943024;29;20215;-57
2022/06/02 13:19:15;;;;;;;2.80;2.60;;;;;;;;;;4935221;29;20226;-57
2022/06/02 13:22:33;;;;;;;2.63;2.53;;;;;;;;;;4941382;29;20231;-57
2022/06/02 13:26:09;;;;;;;2.80;2.70;;;;;;;;;;4937368;29;20579;-56
2022/06/02 13:29:29;;;;;;;3.10;2.87;;;;;;;;;;4929614;29;20224;-62
2022/06/02 13:33:01;;;;;;;2.90;2.70;;;;;;;;;;4933380;28;20214;-57
2022/06/02 13:36:26;;;;;;;2.80;2.60;;;;;;;;;;4938836;28;20221;-57
2022/06/02 13:39:36;;;;;;;2.80;2.60;;;;;;;;;;4943138;29;20259;-57
2022/06/02 13:43:14;;;;;;;3.03;2.83;;;;;;;;;;4943739;29;20621;-58
2022/06/02 13:46:28;;;;;;;2.63;2.50;;;;;;;;;;4883044;28;20708;-58
2022/06/02 13:50:00;;;;;;;2.97;2.87;;;;;;;;;;4946342;29;20218;-69
2022/06/02 13:53:16;;;;;;;2.97;2.77;;;;;;;;;;4932906;29;20224;-57
2022/06/02 13:59:54;;;;;;;2.90;2.80;;;;;;;;;;4945869;29;20212;-57
2022/06/02 14:03:05;;;;;;;2.63;2.43;;;;;;;;;;4941584;28;20208;-57
2022/06/02 14:06:06;;;;;;;2.57;2.47;;;;;;;;;;4944703;28;20655;-57
2022/06/02 14:09:32;;;;;;;2.80;2.70;;;;;;;;;;4946787;28;20212;-58
2022/06/02 14:12:51;;;;;;;3.00;2.80;;;;;;;;;;4912789;29;20247;-57
2022/06/02 14:15:59;;;;;;;2.97;2.77;;;;;;;;;;4944439;28;20208;-57
2022/06/02 14:19:07;;;;;;;2.90;2.80;;;;;;;;;;4944546;29;20563;-57
2022/06/02 14:22:05;;;;;;;2.70;2.60;;;;;;;;;;4938651;28;20247;-57
2022/06/02 14:25:05;;;;;;;2.70;2.60;;;;;;;;;;4942944;28;20212;-57
2022/06/02 14:28:08;;;;;;;3.00;2.77;;;;;;;;;;4943720;28;20209;-58
2022/06/02 14:31:03;;;;;;;2.57;2.47;;;;;;;;;;4942491;29;20252;-58
2022/06/02 14:33:59;;;;;;;2.83;2.73;;;;;;;;;;4950396;28;20606;-57
2022/06/02 14:36:54;;;;;;;3.10;2.90;;;;;;;;;;4944051;29;20224;-58
2022/06/02 14:39:51;;;;;;;2.90;2.70;;;;;;;;;;4941973;28;20680;-57
2022/06/02 14:43:04;;;;;;;3.00;2.80;;;;;;;;;;4942309;28;20244;-58
2022/06/02 14:46:12;;;;;;;2.90;2.80;;;;;;;;;;4941082;28;20514;-57
2022/06/02 14:49:15;;;;;;;3.10;2.90;;;;;;;;;;4947715;29;20242;-57
2022/06/02 14:52:15;;;;;;;3.00;2.80;;;;;;;;;;4939874;28;20208;-57
2022/06/02 14:55:13;;;;;;;3.13;2.90;;;;;;;;;;4940657;28;20585;-58
2022/06/02 14:58:21;;;;;;;2.90;2.70;;;;;;;;;;4941345;28;20208;-62
2022/06/02 15:01:20;;;;;;;3.37;3.07;;;;;;;;;;4945273;28;20601;-56
2022/06/02 15:04:36;;;;;;;2.80;2.70;;;;;;;;;;4946663;28;20704;-57
2022/06/02 15:07:44;;;;;;;2.90;2.77;;;;;;;;;;4940788;28;20937;-62
2022/06/02 15:10:37;;;;;;;2.97;2.80;;;;;;;;;;4944580;28;20601;-57
2022/06/02 15:13:46;;;;;;;3.50;2.80;;;;;;;;;;4942550;28;20225;-57
2022/06/02 15:16:53;;;;;;;3.10;2.90;;;;;;;;;;4946237;28;20215;-58
2022/06/02 15:19:58;;;;;;;3.10;2.90;;;;;;;;;;4938538;28;20227;-58
2022/06/02 15:23:11;;;;;;;3.30;3.10;;;;;;;;;;4945792;29;20241;-57
2022/06/02 15:26:10;;;;;;;2.80;2.70;;;;;;;;;;4935234;28;20222;-59
2022/06/02 15:29:36;;;;;;;3.13;2.93;;;;;;;;;;4945669;28;20212;-61
2022/06/02 15:32:59;;;;;;;3.43;3.13;;;;;;;;;;4944643;28;20216;-57
2022/06/02 15:36:05;;;;;;;3.00;2.80;;;;;;;;;;4941004;28;20211;-57
2022/06/02 15:39:21;;;;;;;3.27;3.07;;;;;;;;;;4948023;29;20215;-57
2022/06/02 15:42:39;;;;;;;3.27;3.07;;;;;;;;;;4943149;28;20751;-57
2022/06/02 15:46:14;;;;;;;2.93;2.80;;;;;;;;;;4940715;28;20243;-57
2022/06/02 15:49:30;;;;;;;3.10;2.90;;;;;;;;;;4919222;29;20763;-57
2022/06/02 15:52:51;;;;;;;3.10;2.90;;;;;;;;;;4945692;29;20203;-58
2022/06/02 15:56:12;;;;;;;3.10;2.90;;;;;;;;;;4946031;29;20211;-56
2022/06/02 15:59:29;;;;;;;2.73;2.63;;;;;;;;;;4941291;29;20324;-58
2022/06/02 16:02:49;;;;;;;3.40;3.20;;;;;;;;;;4944075;28;20230;-57
2022/06/02 16:05:48;;;;;;;3.37;3.17;;;;;;;;;;4943610;28;20207;-57
2022/06/02 16:13:08;;;;;;;3.20;3.00;;;;;;;;;;4943760;28;20242;-57
2022/06/02 16:16:32;;;;;;;3.20;3.00;;;;;;;;;;4926024;29;20215;-58
2022/06/02 16:20:00;;;;;;;3.53;3.23;;;;;;;;;;4934377;28;20226;-57
2022/06/02 16:23:33;;;;;;;3.40;3.20;;;;;;;;;;4932734;29;20238;-57
2022/06/02 16:26:54;;;;;;;3.43;3.23;;;;;;;;;;4938134;28;20211;-57
2022/06/02 16:30:07;;;;;;;3.50;3.20;;;;;;;;;;4938233;28;20226;-57
2022/06/02 16:33:27;;;;;;;3.30;3.00;;;;;;;;;;4944998;28;20583;-58
2022/06/02 16:36:35;;;;;;;3.30;3.10;;;;;;;;;;4936794;28;20241;-57
2022/06/02 16:39:42;;;;;;;3.37;2.87;;;;;;;;;;4942698;28;20219;-58
2022/06/02 16:42:42;;;;;;;3.27;2.97;;;;;;;;;;4941579;28;20227;-57
2022/06/02 16:46:04;;;;;;;3.47;3.17;;;;;;;;;;4939135;29;20219;-56
2022/06/02 16:49:21;;;;;;;3.10;2.90;;;;;;;;;;4941954;28;20211;-57
2022/06/02 16:52:33;;;;;;;3.10;2.90;;;;;;;;;;4940005;29;20771;-56
2022/06/02 16:55:49;;;;;;;3.17;2.97;;;;;;;;;;4917636;29;20215;-57
2022/06/02 16:59:04;;;;;;;3.70;3.40;;;;;;;;;;4939911;28;20591;-58
2022/06/02 17:02:02;;;;;;;3.00;2.80;;;;;;;;;;4936048;28;20282;-58
2022/06/02 17:05:12;;;;;;;3.43;3.10;;;;;;;;;;4940945;29;20220;-57
2022/06/02 17:08:31;;;;;;;3.27;2.97;;;;;;;;;;4944524;28;20302;-57
2022/06/02 17:11:23;;;;;;;3.20;3.00;;;;;;;;;;4924098;29;20703;-57
2022/06/02 17:14:20;;;;;;;3.33;3.10;;;;;;;;;;4939445;29;20216;-57
2022/06/02 17:17:39;;;;;;;3.30;3.10;;;;;;;;;;4942838;28;20563;-57
2022/06/02 17:20:39;;;;;;;3.10;2.80;;;;;;;;;;4937926;29;20592;-57
2022/06/02 17:23:58;;;;;;;3.30;3.10;;;;;;;;;;4940668;29;20204;-57
2022/06/02 17:27:07;;;;;;;3.83;3.20;;;;;;;;;;4936514;29;20214;-57
2022/06/02 17:30:02;;;;;;;3.60;3.40;;;;;;;;;;4938503;28;20215;-58
2022/06/02 17:33:08;;;;;;;3.30;3.10;;;;;;;;;;4940712;28;20214;-57
2022/06/02 17:36:25;;;;;;;3.60;3.40;;;;;;;;;;4938491;28;20212;-57
2022/06/02 17:39:35;;;;;;;3.30;3.00;;;;;;;;;;4946885;28;20203;-57
2022/06/02 17:42:32;;;;;;;3.30;3.10;;;;;;;;;;4935971;28;20233;-57
2022/06/02 17:45:28;;;;;;;3.33;3.13;;;;;;;;;;4946818;28;20242;-57
2022/06/02 17:48:48;;;;;;;3.33;3.13;;;;;;;;;;4937503;29;20287;-57
2022/06/02 17:52:08;;;;;;;3.50;3.20;;;;;;;;;;4926338;28;20221;-57
2022/06/02 17:55:25;;;;;;;3.27;3.07;;;;;;;;;;4940627;29;20438;-57
2022/06/02 17:58:37;;;;;;;3.33;3.07;;;;;;;;;;4942374;29;20225;-57
2022/06/02 18:01:50;;;;;;;3.43;3.13;;;;;;;;;;4938627;28;20245;-57
2022/06/02 18:04:51;;;;;;;3.63;3.43;;;;;;;;;;4937884;28;20210;-58
2022/06/02 18:07:49;;;;;;;3.17;3.00;;;;;;;;;;4938012;29;20217;-57
2022/06/02 18:11:10;;;;;;;3.40;3.20;;;;;;;;;;4941048;29;20203;-58
2022/06/02 18:14:33;;;;;;;3.30;3.07;;;;;;;;;;4942313;29;20217;-57
2022/06/02 18:17:41;;;;;;;3.40;3.10;;;;;;;;;;4939332;29;20217;-57
2022/06/02 18:20:59;;;;;;;3.60;3.40;;;;;;;;;;4945241;29;20217;-57
2022/06/02 18:24:26;;;;;;;2.87;2.67;;;;;;;;;;4937840;28;20237;-57
2022/06/02 18:27:46;;;;;;;3.27;3.07;;;;;;;;;;4939887;29;20228;-57
2022/06/02 18:30:46;;;;;;;3.40;3.20;;;;;;;;;;4943221;29;20582;-57
2022/06/02 18:33:52;;;;;;;3.60;3.27;;;;;;;;;;4947457;28;20207;-57
2022/06/02 18:37:05;;;;;;;3.33;3.13;;;;;;;;;;4943337;28;20217;-58
2022/06/02 18:40:22;;;;;;;3.80;3.20;;;;;;;;;;4941174;28;20207;-57
2022/06/02 18:43:58;;;;;;;3.63;3.33;;;;;;;;;;4946918;28;20260;-57
2022/06/02 18:47:07;;;;;;;3.43;3.13;;;;;;;;;;4940503;28;20641;-57
2022/06/02 18:50:39;;;;;;;3.50;3.30;;;;;;;;;;4942694;29;20208;-57
2022/06/02 18:53:53;;;;;;;3.37;3.17;;;;;;;;;;4932791;29;20233;-56
2022/06/02 18:57:12;;;;;;;4.73;3.20;;;;;;;;;;4943724;29;20951;-57
2022/06/02 19:00:22;;;;;;;3.70;3.40;;;;;;;;;;4946638;28;20213;-57
2022/06/02 19:03:42;;;;;;;3.60;3.40;;;;;;;;;;4947001;28;20224;-57
2022/06/02 19:14:02;;;;;;;3.53;3.33;;;;;;;;;;4946241;28;20212;-58
2022/06/02 19:17:31;;;;;;;3.67;3.37;;;;;;;;;;4944657;28;20212;-58